createdAt,value
2023-07-09T00:01:00.995Z,100712.91
2023-07-09T00:03:27.467Z,100714.09
2023-07-09T00:05:53.897Z,100711.09
2023-07-09T00:08:28.557Z,100721.78
2023-07-09T00:10:59.241Z,100717.44
2023-07-09T00:13:28.072Z,100728.50
2023-07-09T00:16:02.261Z,100726.84
2023-07-09T00:18:29.299Z,100722.88
2023-07-09T00:20:55.723Z,100723.88
2023-07-09T00:23:28.470Z,100729.25
2023-07-09T00:25:55.059Z,100728.59
2023-07-09T00:28:21.510Z,100721.41
2023-07-09T00:30:49.447Z,100727.91
2023-07-09T00:33:19.480Z,100721.72
2023-07-09T00:35:47.472Z,100729.94
2023-07-09T00:38:24.474Z,100735.28
2023-07-09T00:41:00.307Z,100738.28
2023-07-09T00:43:31.632Z,100736.63
2023-07-09T00:46:19.911Z,100735.22
2023-07-09T00:49:08.502Z,100735.41
2023-07-09T00:51:43.062Z,100737.47
2023-07-09T00:54:19.997Z,100742.31
2023-07-09T00:56:52.092Z,100738.63
2023-07-09T00:59:25.228Z,100736.84
2023-07-09T01:01:53.445Z,100738.03
2023-07-09T01:04:22.526Z,100736.97
2023-07-09T01:06:53.363Z,100742.03
2023-07-09T01:09:20.280Z,100736.38
2023-07-09T01:11:52.005Z,100735.19
2023-07-09T01:14:22.401Z,100734.72
2023-07-09T01:16:58.510Z,100731.75
2023-07-09T01:19:26.628Z,100737.94
2023-07-09T01:22:02.345Z,100740.13
2023-07-09T01:25:08.066Z,100739.47
2023-07-09T01:27:44.629Z,100743.50
2023-07-09T01:30:17.829Z,100741.97
2023-07-09T01:32:47.193Z,100740.66
2023-07-09T01:35:16.080Z,100735.66
2023-07-09T01:37:44.862Z,100736.16
2023-07-09T01:40:28.863Z,100744.19
2023-07-09T01:42:59.318Z,100749.19
2023-07-09T01:48:15.381Z,100741.16
2023-07-09T01:50:44.100Z,100739.31
2023-07-09T01:53:15.603Z,100740.50
2023-07-09T01:55:45.098Z,100745.38
2023-07-09T01:58:12.028Z,100741.50
2023-07-09T02:00:41.163Z,100747.22
2023-07-09T02:03:07.761Z,100743.56
2023-07-09T02:05:34.621Z,100743.56
2023-07-09T02:08:01.195Z,100744.69
2023-07-09T02:10:27.700Z,100750.53
2023-07-09T02:12:54.733Z,100763.22
2023-07-09T02:15:21.569Z,100753.53
2023-07-09T02:17:50.474Z,100754.19
2023-07-09T02:20:20.221Z,100751.03
2023-07-09T02:22:47.159Z,100753.88
2023-07-09T02:25:18.578Z,100753.34
2023-07-09T02:27:45.011Z,100752.88
2023-07-09T02:30:12.273Z,100747.88
2023-07-09T02:32:39.078Z,100747.03
2023-07-09T02:35:05.832Z,100744.88
2023-07-09T02:37:35.207Z,100754.88
2023-07-09T02:40:05.264Z,100747.88
2023-07-09T02:42:31.818Z,100746.53
2023-07-09T02:44:58.258Z,100753.88
2023-07-09T02:47:27.264Z,100748.88
2023-07-09T02:49:53.724Z,100759.06
2023-07-09T02:52:20.203Z,100750.19
2023-07-09T02:54:46.659Z,100751.22
2023-07-09T02:57:13.342Z,100750.69
2023-07-09T02:59:39.974Z,100750.00
2023-07-09T03:02:06.893Z,100754.53
2023-07-09T03:04:33.881Z,100758.19
2023-07-09T03:07:01.028Z,100753.03
2023-07-09T03:09:28.828Z,100763.88
2023-07-09T03:11:55.669Z,100766.03
2023-07-09T03:14:22.089Z,100773.22
2023-07-09T03:16:48.625Z,100769.88
2023-07-09T03:19:15.148Z,100774.84
2023-07-09T03:21:41.565Z,100768.34
2023-07-09T03:24:09.319Z,100766.00
2023-07-09T03:26:36.200Z,100766.63
2023-07-09T03:29:07.672Z,100775.66
2023-07-09T03:31:36.214Z,100774.16
2023-07-09T03:34:03.687Z,100780.81
2023-07-09T03:36:30.919Z,100787.56
2023-07-09T03:38:59.852Z,100791.56
2023-07-09T03:41:26.529Z,100791.06
2023-07-09T03:43:54.384Z,100798.72
2023-07-09T03:46:21.518Z,100792.72
2023-07-09T03:48:48.155Z,100800.72
2023-07-09T03:51:15.258Z,100795.69
2023-07-09T03:53:41.876Z,100799.34
2023-07-09T03:56:08.415Z,100806.84
2023-07-09T03:58:36.480Z,100798.50
2023-07-09T04:01:03.248Z,100802.00
2023-07-09T04:03:29.838Z,100802.19
2023-07-09T04:05:56.331Z,100804.19
2023-07-09T04:08:22.818Z,100802.19
2023-07-09T04:10:49.357Z,100814.50
2023-07-09T04:13:17.837Z,100807.34
2023-07-09T04:15:47.896Z,100808.84
2023-07-09T04:18:14.337Z,100818.41
2023-07-09T04:20:40.732Z,100815.72
2023-07-09T04:23:07.619Z,100806.56
2023-07-09T04:25:34.017Z,100807.06
2023-07-09T04:28:00.889Z,100797.91
2023-07-09T04:30:27.518Z,100795.75
2023-07-09T04:32:54.102Z,100802.81
2023-07-09T04:35:20.601Z,100801.16
2023-07-09T04:37:47.119Z,100803.22
2023-07-09T04:40:14.693Z,100803.88
2023-07-09T04:42:43.415Z,100814.09
2023-07-09T04:45:12.126Z,100808.09
2023-07-09T04:47:39.623Z,100805.91
2023-07-09T04:50:08.866Z,100801.78
2023-07-09T04:52:38.178Z,100811.44
2023-07-09T04:55:05.293Z,100805.97
2023-07-09T04:57:31.765Z,100810.63
2023-07-09T04:59:58.258Z,100803.63
2023-07-09T05:02:24.964Z,100798.28
2023-07-09T05:04:51.902Z,100792.97
2023-07-09T05:07:21.457Z,100787.59
2023-07-09T05:09:48.403Z,100789.94
2023-07-09T05:12:14.937Z,100784.56
2023-07-09T05:14:41.665Z,100780.84
2023-07-09T05:17:08.806Z,100793.16
2023-07-09T05:19:37.664Z,100782.78
2023-07-09T05:22:04.758Z,100790.53
2023-07-09T05:24:31.430Z,100800.34
2023-07-09T05:27:03.032Z,100800.59
2023-07-09T05:29:29.695Z,100787.47
2023-07-09T05:31:56.104Z,100797.41
2023-07-09T05:34:22.615Z,100792.16
2023-07-09T05:36:51.668Z,100790.88
2023-07-09T05:39:18.064Z,100791.09
2023-07-09T05:41:44.927Z,100800.38
2023-07-09T05:44:11.390Z,100797.72
2023-07-09T05:46:38.497Z,100797.09
2023-07-09T05:49:07.191Z,100788.63
2023-07-09T05:51:34.233Z,100791.59
2023-07-09T05:54:03.333Z,100794.09
2023-07-09T05:56:30.306Z,100798.06
2023-07-09T05:58:57.884Z,100804.25
2023-07-09T06:01:25.128Z,100786.69
2023-07-09T06:03:51.861Z,100788.97
2023-07-09T06:06:18.450Z,100796.88
2023-07-09T06:08:44.890Z,100803.66
2023-07-09T06:11:14.073Z,100809.19
2023-07-09T06:13:40.693Z,100807.69
2023-07-09T06:16:07.760Z,100794.19
2023-07-09T06:18:36.855Z,100794.31
2023-07-09T06:21:04.434Z,100787.25
2023-07-09T06:23:31.683Z,100788.00
2023-07-09T06:25:58.151Z,100790.84
2023-07-09T06:28:27.243Z,100788.97
2023-07-09T06:30:53.703Z,100793.19
2023-07-09T06:33:20.684Z,100785.22
2023-07-09T06:35:54.404Z,100781.41
2023-07-09T06:38:29.208Z,100782.44
2023-07-09T06:40:56.424Z,100765.59
2023-07-09T06:43:22.936Z,100777.88
2023-07-09T06:46:00.807Z,100787.44
2023-07-09T06:48:29.080Z,100796.22
2023-07-09T06:51:01.481Z,100782.56
2023-07-09T06:53:29.454Z,100783.81
2023-07-09T06:56:00.197Z,100790.44
2023-07-09T06:58:28.872Z,100785.47
2023-07-09T07:01:00.810Z,100784.00
2023-07-09T07:03:27.593Z,100766.13
2023-07-09T07:05:58.388Z,100791.22
2023-07-09T07:08:26.522Z,100762.50
2023-07-09T07:11:03.712Z,100764.97
2023-07-09T07:13:31.366Z,100764.88
2023-07-09T07:15:57.970Z,100770.63
2023-07-09T07:18:24.697Z,100769.09
2023-07-09T07:20:52.128Z,100758.41
2023-07-09T07:23:19.488Z,100755.84
2023-07-09T07:25:46.958Z,100756.28
2023-07-09T07:28:14.017Z,100750.16
2023-07-09T07:30:43.253Z,100731.78
2023-07-09T07:33:09.816Z,100743.94
2023-07-09T07:35:38.548Z,100736.09
2023-07-09T07:38:11.233Z,100741.06
2023-07-09T07:40:37.690Z,100723.63
2023-07-09T07:43:06.447Z,100737.47
2023-07-09T07:45:32.854Z,100730.72
2023-07-09T07:47:59.252Z,100741.75
2023-07-09T07:50:25.663Z,100719.75
2023-07-09T07:52:54.793Z,100712.91
2023-07-09T07:55:21.195Z,100723.88
2023-07-09T07:57:50.179Z,100716.06
2023-07-09T08:00:17.463Z,100707.25
2023-07-09T08:02:44.096Z,100729.19
2023-07-09T08:05:10.527Z,100727.31
2023-07-09T08:07:37.171Z,100724.03
2023-07-09T08:10:06.018Z,100710.34
2023-07-09T08:12:33.292Z,100726.66
2023-07-09T08:14:59.745Z,100718.72
2023-07-09T08:17:26.189Z,100700.50
2023-07-09T08:19:55.372Z,100697.47
2023-07-09T08:22:23.035Z,100703.06
2023-07-09T08:24:50.451Z,100699.00
2023-07-09T08:27:16.870Z,100706.72
2023-07-09T08:29:43.362Z,100708.91
2023-07-09T08:32:11.418Z,100719.31
2023-07-09T08:34:54.463Z,100713.44
2023-07-09T08:37:27.335Z,100699.81
2023-07-09T08:39:53.844Z,100696.13
2023-07-09T08:42:29.886Z,100707.19
2023-07-09T08:45:05.820Z,100701.31
2023-07-09T08:47:53.262Z,100716.22
2023-07-09T08:50:25.894Z,100696.09
2023-07-09T08:52:56.905Z,100694.34
2023-07-09T08:55:25.886Z,100698.19
2023-07-09T08:58:15.816Z,100685.72
2023-07-09T09:00:56.832Z,100686.63
2023-07-09T09:03:30.453Z,100687.38
2023-07-09T09:05:57.866Z,100696.75
2023-07-09T09:08:59.244Z,100692.13
2023-07-09T09:11:46.395Z,100693.91
2023-07-09T09:14:28.795Z,100699.72
2023-07-09T09:16:57.122Z,100701.00
2023-07-09T09:19:27.876Z,100681.63
2023-07-09T09:22:05.926Z,100685.88
2023-07-09T09:24:37.628Z,100690.06
2023-07-09T09:27:04.386Z,100679.06
2023-07-09T09:29:30.826Z,100676.53
2023-07-09T09:31:59.557Z,100685.38
2023-07-09T09:34:29.722Z,100675.09
2023-07-09T09:36:59.204Z,100672.94
2023-07-09T09:39:29.035Z,100672.50
2023-07-09T09:41:57.788Z,100692.59
2023-07-09T09:44:29.704Z,100677.38
2023-07-09T09:47:00.561Z,100694.47
2023-07-09T09:49:28.801Z,100682.97
2023-07-09T09:51:57.548Z,100670.09
2023-07-09T09:54:32.448Z,100682.75
2023-07-09T09:56:58.940Z,100668.97
2023-07-09T09:59:31.375Z,100678.09
2023-07-09T10:02:02.711Z,100666.16
2023-07-09T10:04:31.790Z,100659.75
2023-07-09T10:07:06.818Z,100653.03
2023-07-09T10:09:51.575Z,100655.88
2023-07-09T10:12:24.032Z,100649.88
2023-07-09T10:15:02.040Z,100634.56
2023-07-09T10:17:37.298Z,100650.50
2023-07-09T10:20:11.344Z,100645.59
2023-07-09T10:23:16.459Z,100631.34
2023-07-09T10:25:52.191Z,100628.66
2023-07-09T10:28:47.659Z,100627.00
2023-07-09T10:31:41.581Z,100617.31
2023-07-09T10:34:08.274Z,100619.91
2023-07-09T10:37:15.024Z,100622.66
2023-07-09T10:39:57.991Z,100608.75
2023-07-09T10:42:38.863Z,100613.09
2023-07-09T10:45:34.404Z,100615.56
2023-07-09T10:48:07.507Z,100617.78
2023-07-09T10:50:39.827Z,100614.50
2023-07-09T10:53:53.810Z,100600.81
2023-07-09T10:56:27.119Z,100601.09
2023-07-09T10:58:56.357Z,100602.97
2023-07-09T11:01:32.299Z,100592.59
2023-07-09T11:04:09.839Z,100592.91
2023-07-09T11:06:48.699Z,100598.94
2023-07-09T11:09:27.966Z,100582.78
2023-07-09T11:12:00.830Z,100584.97
2023-07-09T11:14:44.412Z,100584.97
2023-07-09T11:17:20.177Z,100575.13
2023-07-09T11:19:54.596Z,100585.25
2023-07-09T11:22:26.986Z,100577.31
2023-07-09T11:25:07.982Z,100569.38
2023-07-09T11:27:46.197Z,100566.91
2023-07-09T11:30:29.885Z,100571.28
2023-07-09T11:33:23.081Z,100573.16
2023-07-09T11:35:54.567Z,100565.25
2023-07-09T11:38:26.171Z,100560.56
2023-07-09T11:40:55.147Z,100563.53
2023-07-09T11:43:29.293Z,100555.88
2023-07-09T11:45:59.722Z,100558.63
2023-07-09T11:48:30.407Z,100559.16
2023-07-09T11:51:02.882Z,100556.41
2023-07-09T11:53:41.975Z,100554.19
2023-07-09T11:56:09.575Z,100560.59
2023-07-09T11:58:48.756Z,100550.94
2023-07-09T12:01:21.478Z,100542.16
2023-07-09T12:03:48.957Z,100560.66
2023-07-09T12:06:25.467Z,100564.13
2023-07-09T12:08:52.970Z,100557.78
2023-07-09T12:11:31.613Z,100561.66
2023-07-09T12:14:07.194Z,100550.13
2023-07-09T12:16:40.711Z,100539.16
2023-07-09T12:19:07.608Z,100529.78
2023-07-09T12:21:39.306Z,100528.75
2023-07-09T12:24:27.640Z,100524.34
2023-07-09T12:27:00.144Z,100522.13
2023-07-09T12:29:30.198Z,100507.06
2023-07-09T12:32:03.679Z,100509.00
2023-07-09T12:34:32.769Z,100499.09
2023-07-09T12:36:59.400Z,100496.31
2023-07-09T12:39:28.181Z,100481.19
2023-07-09T12:42:01.925Z,100482.66
2023-07-09T12:44:36.957Z,100485.38
2023-07-09T12:47:03.887Z,100489.75
2023-07-09T12:49:38.644Z,100481.94
2023-07-09T12:52:14.647Z,100470.25
2023-07-09T12:54:41.045Z,100462.56
2023-07-09T12:57:18.136Z,100460.34
2023-07-09T12:59:47.270Z,100462.78
2023-07-09T13:02:24.446Z,100448.97
2023-07-09T13:04:59.209Z,100452.41
2023-07-09T13:07:30.921Z,100459.63
2023-07-09T13:09:58.085Z,100464.53
2023-07-09T13:12:32.599Z,100445.38
2023-07-09T13:15:00.863Z,100442.69
2023-07-09T13:17:32.377Z,100446.03
2023-07-09T13:20:01.209Z,100431.28
2023-07-09T13:22:30.161Z,100439.53
2023-07-09T13:24:56.962Z,100441.63
2023-07-09T13:27:24.627Z,100441.63
2023-07-09T13:29:52.150Z,100455.81
2023-07-09T13:32:20.872Z,100433.00
2023-07-09T13:34:47.378Z,100433.16
2023-07-09T13:37:16.587Z,100431.59
2023-07-09T13:39:46.479Z,100428.38
2023-07-09T13:42:15.605Z,100424.53
2023-07-09T13:44:44.384Z,100427.88
2023-07-09T13:47:19.835Z,100425.88
2023-07-09T13:49:50.758Z,100415.78
2023-07-09T13:52:24.389Z,100419.69
2023-07-09T13:54:51.285Z,100413.19
2023-07-09T13:57:22.702Z,100418.69
2023-07-09T13:59:52.742Z,100419.84
2023-07-09T14:02:33.817Z,100415.16
2023-07-09T14:05:03.235Z,100409.94
2023-07-09T14:07:33.908Z,100413.69
2023-07-09T14:10:01.218Z,100419.34
2023-07-09T14:12:29.291Z,100401.84
2023-07-09T14:15:00.223Z,100404.81
2023-07-09T14:17:29.992Z,100405.28
2023-07-09T14:19:57.340Z,100398.75
2023-07-09T14:22:44.727Z,100403.81
2023-07-09T14:25:25.698Z,100396.19
2023-07-09T14:27:54.566Z,100392.44
2023-07-09T14:30:25.756Z,100402.25
2023-07-09T14:32:53.768Z,100396.00
2023-07-09T14:35:22.527Z,100392.69
2023-07-09T14:37:51.875Z,100397.81
2023-07-09T14:40:20.869Z,100398.50
2023-07-09T14:42:48.892Z,100391.72
2023-07-09T14:45:21.801Z,100387.63
2023-07-09T14:47:51.623Z,100389.50
2023-07-09T14:50:25.655Z,100387.84
2023-07-09T14:52:52.247Z,100391.94
2023-07-09T14:55:25.259Z,100387.03
2023-07-09T14:57:51.888Z,100380.25
2023-07-09T15:00:20.696Z,100380.25
2023-07-09T15:02:53.529Z,100395.34
2023-07-09T15:05:22.562Z,100385.75
2023-07-09T15:07:51.406Z,100395.13
2023-07-09T15:10:30.703Z,100385.56
2023-07-09T15:12:57.625Z,100395.06
2023-07-09T15:15:27.833Z,100376.59
2023-07-09T15:17:56.398Z,100397.97
2023-07-09T15:20:29.185Z,100379.16
2023-07-09T15:23:00.141Z,100388.22
2023-07-09T15:25:29.765Z,100391.03
2023-07-09T15:27:57.325Z,100378.50
2023-07-09T15:30:26.405Z,100380.31
2023-07-09T15:32:59.997Z,100379.78
2023-07-09T15:35:36.483Z,100365.03
2023-07-09T15:38:23.454Z,100363.03
2023-07-09T15:40:52.984Z,100366.56
2023-07-09T15:43:19.573Z,100353.63
2023-07-09T15:45:49.206Z,100363.22
2023-07-09T15:48:26.614Z,100353.69
2023-07-09T15:50:53.489Z,100353.38
2023-07-09T15:53:23.601Z,100345.69
2023-07-09T15:55:54.264Z,100338.34
2023-07-09T15:58:33.013Z,100352.66
2023-07-09T16:00:59.684Z,100353.78
2023-07-09T16:03:28.311Z,100358.03
2023-07-09T16:05:57.364Z,100367.41
2023-07-09T16:08:23.880Z,100375.16
2023-07-09T16:10:50.618Z,100366.44
2023-07-09T16:13:29.266Z,100359.59
2023-07-09T16:16:00.426Z,100360.97
2023-07-09T16:18:27.997Z,100363.16
2023-07-09T16:20:57.924Z,100362.34
2023-07-09T16:23:24.502Z,100371.13
2023-07-09T16:25:51.568Z,100371.66
2023-07-09T16:28:20.685Z,100379.63
2023-07-09T16:30:49.617Z,100385.38
2023-07-09T16:33:16.282Z,100375.00
2023-07-09T16:35:43.397Z,100367.31
2023-07-09T16:38:13.772Z,100379.31
2023-07-09T16:40:40.928Z,100367.31
2023-07-09T16:43:16.200Z,100361.28
2023-07-09T16:45:45.773Z,100355.28
2023-07-09T16:48:21.753Z,100347.63
2023-07-09T16:50:51.401Z,100348.72
2023-07-09T16:53:19.873Z,100346.50
2023-07-09T16:55:48.115Z,100350.88
2023-07-09T16:58:25.872Z,100338.84
2023-07-09T17:00:52.403Z,100339.91
2023-07-09T17:03:19.003Z,100335.00
2023-07-09T17:05:45.722Z,100341.53
2023-07-09T17:08:12.242Z,100335.50
2023-07-09T17:10:44.272Z,100350.78
2023-07-09T17:13:25.364Z,100336.59
2023-07-09T17:15:52.894Z,100343.09
2023-07-09T17:18:20.907Z,100349.66
2023-07-09T17:20:49.508Z,100344.13
2023-07-09T17:23:19.195Z,100356.09
2023-07-09T17:25:47.052Z,100346.28
2023-07-09T17:28:20.598Z,100358.78
2023-07-09T17:30:48.230Z,100353.31
2023-07-09T17:33:15.458Z,100357.06
2023-07-09T17:35:44.423Z,100367.94
2023-07-09T17:38:16.766Z,100360.78
2023-07-09T17:40:44.361Z,100362.38
2023-07-09T17:43:22.806Z,100359.63
2023-07-09T17:45:51.527Z,100364.47
2023-07-09T17:48:22.662Z,100363.88
2023-07-09T17:50:49.395Z,100361.09
2023-07-09T17:53:21.723Z,100358.31
2023-07-09T17:55:49.238Z,100360.69
2023-07-09T17:58:26.553Z,100373.41
2023-07-09T18:00:55.670Z,100369.50
2023-07-09T18:03:24.036Z,100373.25
2023-07-09T18:05:50.941Z,100386.75
2023-07-09T18:08:20.501Z,100379.13
2023-07-09T18:10:48.538Z,100377.41
2023-07-09T18:13:18.118Z,100383.38
2023-07-09T18:15:45.615Z,100380.56
2023-07-09T18:18:13.945Z,100381.03
2023-07-09T18:20:45.538Z,100371.16
2023-07-09T18:23:11.964Z,100380.84
2023-07-09T18:25:40.482Z,100378.31
2023-07-09T18:28:11.644Z,100381.31
2023-07-09T18:30:40.412Z,100377.09
2023-07-09T18:33:07.093Z,100378.97
2023-07-09T18:35:38.810Z,100382.09
2023-07-09T18:38:11.035Z,100386.91
2023-07-09T18:40:41.203Z,100384.63
2023-07-09T18:43:30.861Z,100389.41
2023-07-09T18:45:58.828Z,100383.34
2023-07-09T18:48:26.216Z,100395.69
2023-07-09T18:50:56.097Z,100397.28
2023-07-09T18:53:23.525Z,100391.84
2023-07-09T18:55:50.857Z,100390.53
2023-07-09T18:58:30.796Z,100396.34
2023-07-09T19:01:00.308Z,100396.41
2023-07-09T19:03:32.079Z,100407.84
2023-07-09T19:05:59.715Z,100400.00
2023-07-09T19:08:28.593Z,100391.28
2023-07-09T19:10:55.838Z,100386.41
2023-07-09T19:13:22.584Z,100403.53
2023-07-09T19:15:51.215Z,100404.88
2023-07-09T19:18:24.953Z,100408.09
2023-07-09T19:20:56.358Z,100405.19
2023-07-09T19:23:24.126Z,100398.56
2023-07-09T19:25:52.365Z,100400.94
2023-07-09T19:28:20.973Z,100393.84
2023-07-09T19:30:49.324Z,100402.78
2023-07-09T19:33:22.977Z,100396.69
2023-07-09T19:35:49.587Z,100402.03
2023-07-09T19:38:16.221Z,100400.50
2023-07-09T19:40:42.754Z,100398.25
2023-07-09T19:43:12.591Z,100390.75
2023-07-09T19:45:45.210Z,100401.69
2023-07-09T19:48:25.200Z,100400.31
2023-07-09T19:50:54.048Z,100404.47
2023-07-09T19:53:28.336Z,100407.34
2023-07-09T19:55:56.525Z,100410.47
2023-07-09T19:58:23.326Z,100409.88
2023-07-09T20:00:53.085Z,100408.47
2023-07-09T20:03:26.381Z,100407.00
2023-07-09T20:05:56.082Z,100413.03
2023-07-09T20:08:24.112Z,100405.38
2023-07-09T20:11:07.564Z,100412.81
2023-07-09T20:13:37.358Z,100419.50
2023-07-09T20:16:04.578Z,100410.78
2023-07-09T20:18:33.846Z,100417.16
2023-07-09T20:21:14.044Z,100416.25
2023-07-09T20:23:40.475Z,100420.38
2023-07-09T20:26:09.380Z,100419.31
2023-07-09T20:28:37.931Z,100431.09
2023-07-09T20:31:19.075Z,100438.00
2023-07-09T20:33:45.562Z,100428.13
2023-07-09T20:36:12.032Z,100430.44
2023-07-09T20:38:38.652Z,100433.34
2023-07-09T20:41:09.372Z,100436.50
2023-07-09T20:43:40.576Z,100430.59
2023-07-09T20:46:09.817Z,100434.41
2023-07-09T20:48:37.318Z,100447.28
2023-07-09T20:51:04.230Z,100450.78
2023-07-09T20:53:31.409Z,100453.03
2023-07-09T20:56:01.287Z,100453.91
2023-07-09T20:58:29.400Z,100460.69
2023-07-09T21:00:56.112Z,100457.56
2023-07-09T21:03:26.313Z,100457.88
2023-07-09T21:05:53.822Z,100467.50
2023-07-09T21:08:25.674Z,100472.56
2023-07-09T21:10:52.640Z,100470.78
2023-07-09T21:13:25.297Z,100470.22
2023-07-09T21:15:57.856Z,100478.63
2023-07-09T21:18:35.426Z,100476.13
2023-07-09T21:21:02.509Z,100477.25
2023-07-09T21:23:28.954Z,100483.31
2023-07-09T21:25:55.426Z,100489.84
2023-07-09T21:28:21.856Z,100493.44
2023-07-09T21:30:48.916Z,100502.22
2023-07-09T21:33:19.097Z,100506.41
2023-07-09T21:35:47.428Z,100500.63
2023-07-09T21:38:22.836Z,100510.22
2023-07-09T21:40:54.065Z,100516.84
2023-07-09T21:43:21.044Z,100520.38
2023-07-09T21:45:54.491Z,100514.16
2023-07-09T21:48:27.131Z,100526.41
2023-07-09T21:50:54.362Z,100514.75
2023-07-09T21:53:39.639Z,100517.22
2023-07-09T21:56:13.063Z,100518.66
2023-07-09T21:58:40.366Z,100517.22
2023-07-09T22:01:17.825Z,100521.41
2023-07-09T22:03:44.577Z,100525.16
2023-07-09T22:06:16.101Z,100521.63
2023-07-09T22:08:47.239Z,100524.00
2023-07-09T22:11:28.226Z,100517.34
2023-07-09T22:13:56.662Z,100515.94
2023-07-09T22:16:24.052Z,100516.97
2023-07-09T22:18:50.572Z,100517.81
2023-07-09T22:21:17.061Z,100520.28
2023-07-09T22:23:46.236Z,100526.94
2023-07-09T22:26:12.711Z,100528.38
2023-07-09T22:28:39.217Z,100524.84
2023-07-09T22:31:08.912Z,100529.81
2023-07-09T22:33:35.320Z,100547.03
2023-07-09T22:36:02.006Z,100542.50
2023-07-09T22:38:30.990Z,100550.59
2023-07-09T22:40:57.527Z,100550.63
2023-07-09T22:43:24.060Z,100579.50
2023-07-09T22:45:51.798Z,100573.88
2023-07-09T22:48:21.895Z,100572.22
2023-07-09T22:50:49.621Z,100572.81
2023-07-09T22:53:18.272Z,100585.91
2023-07-09T22:55:47.693Z,100574.25
2023-07-09T22:58:18.769Z,100574.88
2023-07-09T23:00:53.296Z,100577.34
2023-07-09T23:03:24.968Z,100592.31
2023-07-09T23:05:56.228Z,100592.94
2023-07-09T23:08:26.541Z,100586.66
2023-07-09T23:10:57.136Z,100576.69
2023-07-09T23:13:34.957Z,100578.13
2023-07-09T23:16:03.260Z,100585.34
2023-07-09T23:18:31.045Z,100587.44
2023-07-09T23:20:58.098Z,100582.03
2023-07-09T23:23:24.743Z,100589.50
2023-07-09T23:25:57.385Z,100588.25
2023-07-09T23:28:24.687Z,100584.91
2023-07-09T23:30:54.284Z,100589.91
2023-07-09T23:33:29.854Z,100581.66
2023-07-09T23:36:03.081Z,100577.09
2023-07-09T23:38:32.046Z,100580.00
2023-07-09T23:41:00.694Z,100581.06
2023-07-09T23:43:32.049Z,100576.72
2023-07-09T23:46:02.368Z,100579.63
2023-07-09T23:48:32.862Z,100577.97
2023-07-09T23:51:07.589Z,100583.97
2023-07-09T23:53:34.994Z,100571.78
2023-07-09T23:56:23.070Z,100569.72
2023-07-09T23:58:50.148Z,100574.28
